sensor_id;sensor_type;location;lat;lon;timestamp;P1;durP1;ratioP1;P2;durP2;ratioP2
18196;SDS011;9224;52.422;13.024;2022-10-23T00:00:29;8.70;;;6.80;;
18196;SDS011;9224;52.422;13.024;2022-10-23T00:02:56;11.27;;;6.73;;
18196;SDS011;9224;52.422;13.024;2022-10-23T00:05:23;9.07;;;6.53;;
18196;SDS011;9224;52.422;13.024;2022-10-23T00:07:50;8.48;;;6.97;;
18196;SDS011;9224;52.422;13.024;2022-10-23T00:10:17;8.10;;;6.75;;
18196;SDS011;9224;52.422;13.024;2022-10-23T00:12:46;7.38;;;6.53;;
18196;SDS011;9224;52.422;13.024;2022-10-23T00:15:12;8.80;;;6.63;;
18196;SDS011;9224;52.422;13.024;2022-10-23T00:17:40;8.70;;;6.43;;
18196;SDS011;9224;52.422;13.024;2022-10-23T00:20:07;8.00;;;6.00;;
18196;SDS011;9224;52.422;13.024;2022-10-23T00:22:34;7.80;;;6.60;;
18196;SDS011;9224;52.422;13.024;2022-10-23T00:25:01;8.23;;;5.97;;
18196;SDS011;9224;52.422;13.024;2022-10-23T00:27:27;9.38;;;6.10;;
18196;SDS011;9224;52.422;13.024;2022-10-23T00:29:55;8.40;;;6.10;;
18196;SDS011;9224;52.422;13.024;2022-10-23T00:32:22;8.52;;;6.32;;
18196;SDS011;9224;52.422;13.024;2022-10-23T00:34:48;9.38;;;6.40;;
18196;SDS011;9224;52.422;13.024;2022-10-23T00:37:15;7.22;;;5.90;;
18196;SDS011;9224;52.422;13.024;2022-10-23T00:39:41;8.30;;;6.20;;
18196;SDS011;9224;52.422;13.024;2022-10-23T00:42:09;8.10;;;6.13;;
18196;SDS011;9224;52.422;13.024;2022-10-23T00:47:40;8.13;;;6.75;;
18196;SDS011;9224;52.422;13.024;2022-10-23T00:50:07;7.55;;;6.15;;
18196;SDS011;9224;52.422;13.024;2022-10-23T00:52:34;9.88;;;6.40;;
18196;SDS011;9224;52.422;13.024;2022-10-23T00:55:02;8.02;;;6.50;;
18196;SDS011;9224;52.422;13.024;2022-10-23T00:57:29;7.85;;;6.80;;
18196;SDS011;9224;52.422;13.024;2022-10-23T00:59:56;8.20;;;6.53;;
18196;SDS011;9224;52.422;13.024;2022-10-23T01:02:22;9.38;;;6.63;;
18196;SDS011;9224;52.422;13.024;2022-10-23T01:04:50;8.95;;;7.10;;
18196;SDS011;9224;52.422;13.024;2022-10-23T01:07:17;8.68;;;6.70;;
18196;SDS011;9224;52.422;13.024;2022-10-23T01:09:50;9.68;;;6.70;;
18196;SDS011;9224;52.422;13.024;2022-10-23T01:12:23;9.15;;;6.93;;
18196;SDS011;9224;52.422;13.024;2022-10-23T01:14:54;8.73;;;6.90;;
18196;SDS011;9224;52.422;13.024;2022-10-23T01:17:28;8.13;;;7.07;;
18196;SDS011;9224;52.422;13.024;2022-10-23T01:20:04;7.45;;;6.72;;
18196;SDS011;9224;52.422;13.024;2022-10-23T01:22:45;7.55;;;6.68;;
18196;SDS011;9224;52.422;13.024;2022-10-23T01:25:24;11.48;;;6.97;;
18196;SDS011;9224;52.422;13.024;2022-10-23T01:27:56;10.80;;;7.47;;
18196;SDS011;9224;52.422;13.024;2022-10-23T01:30:26;9.57;;;6.80;;
18196;SDS011;9224;52.422;13.024;2022-10-23T01:32:54;8.98;;;6.95;;
18196;SDS011;9224;52.422;13.024;2022-10-23T01:35:23;10.60;;;7.00;;
18196;SDS011;9224;52.422;13.024;2022-10-23T01:37:53;9.45;;;7.07;;
18196;SDS011;9224;52.422;13.024;2022-10-23T01:40:22;8.35;;;6.70;;
18196;SDS011;9224;52.422;13.024;2022-10-23T01:42:51;8.45;;;6.95;;
18196;SDS011;9224;52.422;13.024;2022-10-23T01:45:22;7.53;;;6.60;;
18196;SDS011;9224;52.422;13.024;2022-10-23T01:47:50;8.60;;;6.60;;
18196;SDS011;9224;52.422;13.024;2022-10-23T01:50:18;10.43;;;6.93;;
18196;SDS011;9224;52.422;13.024;2022-10-23T01:52:46;7.95;;;6.50;;
18196;SDS011;9224;52.422;13.024;2022-10-23T01:55:13;8.52;;;6.72;;
18196;SDS011;9224;52.422;13.024;2022-10-23T01:57:39;9.75;;;6.72;;
18196;SDS011;9224;52.422;13.024;2022-10-23T02:00:07;9.23;;;6.78;;
18196;SDS011;9224;52.422;13.024;2022-10-23T02:02:37;11.13;;;6.88;;
18196;SDS011;9224;52.422;13.024;2022-10-23T02:05:05;8.23;;;6.53;;
18196;SDS011;9224;52.422;13.024;2022-10-23T02:07:33;9.45;;;6.60;;
18196;SDS011;9224;52.422;13.024;2022-10-23T02:10:01;8.00;;;6.55;;
18196;SDS011;9224;52.422;13.024;2022-10-23T02:12:30;7.57;;;6.78;;
18196;SDS011;9224;52.422;13.024;2022-10-23T02:15:00;8.63;;;6.35;;
18196;SDS011;9224;52.422;13.024;2022-10-23T02:17:28;10.50;;;6.80;;
18196;SDS011;9224;52.422;13.024;2022-10-23T02:20:04;9.00;;;6.27;;
18196;SDS011;9224;52.422;13.024;2022-10-23T02:22:35;9.85;;;6.15;;
18196;SDS011;9224;52.422;13.024;2022-10-23T02:25:06;9.77;;;6.05;;
18196;SDS011;9224;52.422;13.024;2022-10-23T02:27:36;9.18;;;7.03;;
18196;SDS011;9224;52.422;13.024;2022-10-23T02:30:24;9.20;;;6.88;;
18196;SDS011;9224;52.422;13.024;2022-10-23T02:33:09;8.45;;;6.90;;
18196;SDS011;9224;52.422;13.024;2022-10-23T02:35:38;7.88;;;7.00;;
18196;SDS011;9224;52.422;13.024;2022-10-23T02:40:57;10.32;;;7.38;;
18196;SDS011;9224;52.422;13.024;2022-10-23T02:43:29;11.23;;;6.70;;
18196;SDS011;9224;52.422;13.024;2022-10-23T02:45:59;9.63;;;6.68;;
18196;SDS011;9224;52.422;13.024;2022-10-23T02:48:32;7.47;;;6.45;;
18196;SDS011;9224;52.422;13.024;2022-10-23T02:51:06;7.65;;;6.38;;
18196;SDS011;9224;52.422;13.024;2022-10-23T02:53:39;8.75;;;7.28;;
18196;SDS011;9224;52.422;13.024;2022-10-23T02:56:11;8.18;;;6.53;;
18196;SDS011;9224;52.422;13.024;2022-10-23T02:58:44;8.23;;;6.47;;
18196;SDS011;9224;52.422;13.024;2022-10-23T03:01:16;9.35;;;6.60;;
18196;SDS011;9224;52.422;13.024;2022-10-23T03:03:45;8.52;;;6.47;;
18196;SDS011;9224;52.422;13.024;2022-10-23T03:06:16;8.38;;;6.60;;
18196;SDS011;9224;52.422;13.024;2022-10-23T03:08:42;7.78;;;6.47;;
18196;SDS011;9224;52.422;13.024;2022-10-23T03:11:09;9.10;;;6.80;;
18196;SDS011;9224;52.422;13.024;2022-10-23T03:13:36;10.60;;;6.90;;
18196;SDS011;9224;52.422;13.024;2022-10-23T03:16:02;9.48;;;7.05;;
18196;SDS011;9224;52.422;13.024;2022-10-23T03:18:29;10.85;;;7.32;;
18196;SDS011;9224;52.422;13.024;2022-10-23T03:20:55;7.43;;;6.63;;
18196;SDS011;9224;52.422;13.024;2022-10-23T03:23:23;9.60;;;7.35;;
18196;SDS011;9224;52.422;13.024;2022-10-23T03:25:50;10.13;;;7.30;;
18196;SDS011;9224;52.422;13.024;2022-10-23T03:28:17;10.15;;;6.63;;
18196;SDS011;9224;52.422;13.024;2022-10-23T03:30:43;7.47;;;6.60;;
18196;SDS011;9224;52.422;13.024;2022-10-23T03:33:10;9.02;;;6.78;;
18196;SDS011;9224;52.422;13.024;2022-10-23T03:35:36;9.07;;;6.78;;
18196;SDS011;9224;52.422;13.024;2022-10-23T03:38:03;8.80;;;6.88;;
18196;SDS011;9224;52.422;13.024;2022-10-23T03:40:30;8.50;;;6.67;;
18196;SDS011;9224;52.422;13.024;2022-10-23T03:42:57;7.85;;;6.60;;
18196;SDS011;9224;52.422;13.024;2022-10-23T03:45:23;7.93;;;6.80;;
18196;SDS011;9224;52.422;13.024;2022-10-23T03:47:50;9.65;;;6.63;;
18196;SDS011;9224;52.422;13.024;2022-10-23T03:50:16;8.63;;;6.40;;
18196;SDS011;9224;52.422;13.024;2022-10-23T03:52:44;9.33;;;6.57;;
18196;SDS011;9224;52.422;13.024;2022-10-23T03:55:10;10.77;;;6.60;;
18196;SDS011;9224;52.422;13.024;2022-10-23T03:57:38;8.27;;;6.37;;
18196;SDS011;9224;52.422;13.024;2022-10-23T04:00:05;8.48;;;6.30;;
18196;SDS011;9224;52.422;13.024;2022-10-23T04:02:32;8.20;;;6.70;;
18196;SDS011;9224;52.422;13.024;2022-10-23T04:04:58;7.30;;;6.60;;
18196;SDS011;9224;52.422;13.024;2022-10-23T04:07:25;10.02;;;6.50;;
18196;SDS011;9224;52.422;13.024;2022-10-23T04:09:51;10.30;;;6.45;;
18196;SDS011;9224;52.422;13.024;2022-10-23T04:12:18;11.05;;;6.28;;
18196;SDS011;9224;52.422;13.024;2022-10-23T04:14:45;7.30;;;6.43;;
18196;SDS011;9224;52.422;13.024;2022-10-23T04:17:12;9.05;;;6.70;;
18196;SDS011;9224;52.422;13.024;2022-10-23T04:19:38;10.02;;;6.35;;
18196;SDS011;9224;52.422;13.024;2022-10-23T04:22:05;8.82;;;6.22;;
18196;SDS011;9224;52.422;13.024;2022-10-23T04:24:31;8.52;;;6.25;;
18196;SDS011;9224;52.422;13.024;2022-10-23T04:26:58;7.17;;;6.37;;
18196;SDS011;9224;52.422;13.024;2022-10-23T04:29:24;9.10;;;5.90;;
18196;SDS011;9224;52.422;13.024;2022-10-23T04:31:53;10.13;;;6.35;;
18196;SDS011;9224;52.422;13.024;2022-10-23T04:34:20;9.55;;;6.25;;
18196;SDS011;9224;52.422;13.024;2022-10-23T04:36:46;7.43;;;6.70;;
18196;SDS011;9224;52.422;13.024;2022-10-23T04:39:13;9.13;;;6.50;;
18196;SDS011;9224;52.422;13.024;2022-10-23T04:41:39;8.88;;;6.68;;
18196;SDS011;9224;52.422;13.024;2022-10-23T04:44:06;9.35;;;6.97;;
18196;SDS011;9224;52.422;13.024;2022-10-23T04:46:33;7.20;;;6.53;;
18196;SDS011;9224;52.422;13.024;2022-10-23T04:49:00;7.67;;;6.93;;
18196;SDS011;9224;52.422;13.024;2022-10-23T04:51:27;9.60;;;6.68;;
18196;SDS011;9224;52.422;13.024;2022-10-23T04:53:53;8.18;;;6.20;;
18196;SDS011;9224;52.422;13.024;2022-10-23T04:56:20;7.78;;;6.45;;
18196;SDS011;9224;52.422;13.024;2022-10-23T04:58:46;9.88;;;6.70;;
18196;SDS011;9224;52.422;13.024;2022-10-23T05:01:13;8.43;;;6.30;;
18196;SDS011;9224;52.422;13.024;2022-10-23T05:03:39;8.23;;;6.97;;
18196;SDS011;9224;52.422;13.024;2022-10-23T05:06:07;9.63;;;6.57;;
18196;SDS011;9224;52.422;13.024;2022-10-23T05:08:33;8.77;;;6.28;;
18196;SDS011;9224;52.422;13.024;2022-10-23T05:11:00;11.00;;;6.10;;
18196;SDS011;9224;52.422;13.024;2022-10-23T05:13:27;7.13;;;5.82;;
18196;SDS011;9224;52.422;13.024;2022-10-23T05:15:56;7.90;;;6.00;;
18196;SDS011;9224;52.422;13.024;2022-10-23T05:18:24;7.32;;;5.68;;
18196;SDS011;9224;52.422;13.024;2022-10-23T05:20:53;7.13;;;5.85;;
18196;SDS011;9224;52.422;13.024;2022-10-23T05:23:22;6.70;;;6.10;;
18196;SDS011;9224;52.422;13.024;2022-10-23T05:25:49;7.43;;;6.40;;
18196;SDS011;9224;52.422;13.024;2022-10-23T05:28:16;8.07;;;6.13;;
18196;SDS011;9224;52.422;13.024;2022-10-23T05:30:42;9.25;;;5.88;;
18196;SDS011;9224;52.422;13.024;2022-10-23T05:33:09;8.80;;;5.80;;
18196;SDS011;9224;52.422;13.024;2022-10-23T05:35:35;7.65;;;5.95;;
18196;SDS011;9224;52.422;13.024;2022-10-23T05:38:03;6.65;;;5.97;;
18196;SDS011;9224;52.422;13.024;2022-10-23T05:40:32;9.25;;;6.10;;
18196;SDS011;9224;52.422;13.024;2022-10-23T05:42:59;7.30;;;6.03;;
18196;SDS011;9224;52.422;13.024;2022-10-23T05:45:25;8.45;;;6.20;;
18196;SDS011;9224;52.422;13.024;2022-10-23T05:47:52;9.10;;;6.65;;
18196;SDS011;9224;52.422;13.024;2022-10-23T05:50:18;9.73;;;6.20;;
18196;SDS011;9224;52.422;13.024;2022-10-23T05:52:45;7.80;;;6.50;;
18196;SDS011;9224;52.422;13.024;2022-10-23T05:55:12;8.10;;;6.32;;
18196;SDS011;9224;52.422;13.024;2022-10-23T05:57:40;8.05;;;6.63;;
18196;SDS011;9224;52.422;13.024;2022-10-23T06:00:07;8.80;;;6.57;;
18196;SDS011;9224;52.422;13.024;2022-10-23T06:02:35;6.80;;;6.10;;
18196;SDS011;9224;52.422;13.024;2022-10-23T06:05:01;7.15;;;6.18;;
18196;SDS011;9224;52.422;13.024;2022-10-23T06:07:28;7.85;;;6.40;;
18196;SDS011;9224;52.422;13.024;2022-10-23T06:09:55;7.85;;;6.80;;
18196;SDS011;9224;52.422;13.024;2022-10-23T06:12:22;9.47;;;6.53;;
18196;SDS011;9224;52.422;13.024;2022-10-23T06:14:50;8.97;;;6.47;;
18196;SDS011;9224;52.422;13.024;2022-10-23T06:17:16;7.45;;;5.90;;
18196;SDS011;9224;52.422;13.024;2022-10-23T06:19:43;10.07;;;6.68;;
18196;SDS011;9224;52.422;13.024;2022-10-23T06:22:09;7.15;;;6.45;;
18196;SDS011;9224;52.422;13.024;2022-10-23T06:24:36;7.72;;;6.90;;
18196;SDS011;9224;52.422;13.024;2022-10-23T06:27:02;8.65;;;6.55;;
18196;SDS011;9224;52.422;13.024;2022-10-23T06:29:29;7.43;;;6.63;;
18196;SDS011;9224;52.422;13.024;2022-10-23T06:31:57;7.95;;;6.95;;
18196;SDS011;9224;52.422;13.024;2022-10-23T06:34:23;8.03;;;7.10;;
18196;SDS011;9224;52.422;13.024;2022-10-23T06:36:50;8.48;;;7.60;;
18196;SDS011;9224;52.422;13.024;2022-10-23T06:39:16;9.07;;;7.80;;
18196;SDS011;9224;52.422;13.024;2022-10-23T06:41:45;8.35;;;7.45;;
18196;SDS011;9224;52.422;13.024;2022-10-23T06:44:11;7.90;;;7.03;;
18196;SDS011;9224;52.422;13.024;2022-10-23T06:46:37;10.05;;;7.63;;
18196;SDS011;9224;52.422;13.024;2022-10-23T06:49:05;10.18;;;7.30;;
18196;SDS011;9224;52.422;13.024;2022-10-23T06:51:32;9.93;;;8.33;;
18196;SDS011;9224;52.422;13.024;2022-10-23T06:53:58;10.17;;;8.00;;
18196;SDS011;9224;52.422;13.024;2022-10-23T06:56:24;10.10;;;8.23;;
18196;SDS011;9224;52.422;13.024;2022-10-23T06:58:53;8.80;;;7.93;;
18196;SDS011;9224;52.422;13.024;2022-10-23T07:01:20;9.98;;;8.10;;
18196;SDS011;9224;52.422;13.024;2022-10-23T07:03:47;10.07;;;8.63;;
18196;SDS011;9224;52.422;13.024;2022-10-23T07:06:14;11.75;;;8.13;;
18196;SDS011;9224;52.422;13.024;2022-10-23T07:08:41;10.27;;;8.13;;
18196;SDS011;9224;52.422;13.024;2022-10-23T07:11:08;8.75;;;7.85;;
18196;SDS011;9224;52.422;13.024;2022-10-23T07:13:36;10.52;;;8.23;;
18196;SDS011;9224;52.422;13.024;2022-10-23T07:16:10;9.20;;;8.10;;
18196;SDS011;9224;52.422;13.024;2022-10-23T07:18:37;9.43;;;8.40;;
18196;SDS011;9224;52.422;13.024;2022-10-23T07:21:03;10.68;;;8.63;;
18196;SDS011;9224;52.422;13.024;2022-10-23T07:23:32;9.70;;;8.57;;
18196;SDS011;9224;52.422;13.024;2022-10-23T07:26:01;9.30;;;8.20;;
18196;SDS011;9224;52.422;13.024;2022-10-23T07:28:28;11.18;;;8.35;;
18196;SDS011;9224;52.422;13.024;2022-10-23T07:30:55;10.57;;;8.70;;
18196;SDS011;9224;52.422;13.024;2022-10-23T07:35:59;10.40;;;8.55;;
18196;SDS011;9224;52.422;13.024;2022-10-23T07:38:28;11.27;;;9.23;;
18196;SDS011;9224;52.422;13.024;2022-10-23T07:40:56;10.00;;;9.00;;
18196;SDS011;9224;52.422;13.024;2022-10-23T07:43:23;10.93;;;9.55;;
18196;SDS011;9224;52.422;13.024;2022-10-23T07:45:50;10.55;;;9.45;;
18196;SDS011;9224;52.422;13.024;2022-10-23T07:48:17;12.27;;;10.63;;
18196;SDS011;9224;52.422;13.024;2022-10-23T07:50:45;10.98;;;9.88;;
18196;SDS011;9224;52.422;13.024;2022-10-23T07:53:13;13.23;;;10.13;;
18196;SDS011;9224;52.422;13.024;2022-10-23T07:55:42;12.25;;;10.57;;
18196;SDS011;9224;52.422;13.024;2022-10-23T07:58:10;11.63;;;10.35;;
18196;SDS011;9224;52.422;13.024;2022-10-23T08:00:37;11.43;;;10.23;;
18196;SDS011;9224;52.422;13.024;2022-10-23T08:03:04;12.07;;;10.13;;
18196;SDS011;9224;52.422;13.024;2022-10-23T08:05:31;11.82;;;10.40;;
18196;SDS011;9224;52.422;13.024;2022-10-23T08:07:57;12.32;;;10.68;;
18196;SDS011;9224;52.422;13.024;2022-10-23T08:10:24;11.82;;;10.55;;
18196;SDS011;9224;52.422;13.024;2022-10-23T08:12:50;12.40;;;9.80;;
18196;SDS011;9224;52.422;13.024;2022-10-23T08:15:18;12.80;;;10.27;;
18196;SDS011;9224;52.422;13.024;2022-10-23T08:17:44;10.30;;;8.70;;
18196;SDS011;9224;52.422;13.024;2022-10-23T08:20:11;10.13;;;8.95;;
18196;SDS011;9224;52.422;13.024;2022-10-23T08:22:38;10.68;;;8.93;;
18196;SDS011;9224;52.422;13.024;2022-10-23T08:25:05;10.05;;;8.48;;
18196;SDS011;9224;52.422;13.024;2022-10-23T08:27:31;9.25;;;8.35;;
18196;SDS011;9224;52.422;13.024;2022-10-23T08:29:58;9.32;;;8.25;;
18196;SDS011;9224;52.422;13.024;2022-10-23T08:32:28;9.93;;;8.30;;
18196;SDS011;9224;52.422;13.024;2022-10-23T08:34:55;11.55;;;9.38;;
18196;SDS011;9224;52.422;13.024;2022-10-23T08:37:21;11.90;;;9.32;;
18196;SDS011;9224;52.422;13.024;2022-10-23T08:39:48;14.25;;;10.82;;
18196;SDS011;9224;52.422;13.024;2022-10-23T08:42:16;10.45;;;9.32;;
18196;SDS011;9224;52.422;13.024;2022-10-23T08:44:48;11.30;;;8.75;;
18196;SDS011;9224;52.422;13.024;2022-10-23T08:47:18;10.88;;;8.57;;
18196;SDS011;9224;52.422;13.024;2022-10-23T08:52:20;8.35;;;7.03;;
18196;SDS011;9224;52.422;13.024;2022-10-23T08:54:55;7.47;;;6.68;;
18196;SDS011;9224;52.422;13.024;2022-10-23T08:57:26;7.33;;;6.60;;
18196;SDS011;9224;52.422;13.024;2022-10-23T08:59:59;7.43;;;6.30;;
18196;SDS011;9224;52.422;13.024;2022-10-23T09:02:27;7.80;;;6.45;;
18196;SDS011;9224;52.422;13.024;2022-10-23T09:04:58;7.07;;;6.38;;
18196;SDS011;9224;52.422;13.024;2022-10-23T09:07:26;7.20;;;6.32;;
18196;SDS011;9224;52.422;13.024;2022-10-23T09:10:02;7.05;;;6.35;;
18196;SDS011;9224;52.422;13.024;2022-10-23T09:12:40;6.68;;;6.07;;
18196;SDS011;9224;52.422;13.024;2022-10-23T09:15:11;6.40;;;5.80;;
18196;SDS011;9224;52.422;13.024;2022-10-23T09:17:41;6.22;;;5.35;;
18196;SDS011;9224;52.422;13.024;2022-10-23T09:20:15;5.75;;;5.15;;
18196;SDS011;9224;52.422;13.024;2022-10-23T09:22:44;6.72;;;5.65;;
18196;SDS011;9224;52.422;13.024;2022-10-23T09:25:15;6.60;;;4.93;;
18196;SDS011;9224;52.422;13.024;2022-10-23T09:27:48;8.10;;;4.67;;
18196;SDS011;9224;52.422;13.024;2022-10-23T09:30:23;6.35;;;4.07;;
18196;SDS011;9224;52.422;13.024;2022-10-23T09:32:51;5.80;;;4.20;;
18196;SDS011;9224;52.422;13.024;2022-10-23T09:35:22;5.63;;;4.03;;
18196;SDS011;9224;52.422;13.024;2022-10-23T09:37:50;5.35;;;4.07;;
18196;SDS011;9224;52.422;13.024;2022-10-23T09:40:18;4.93;;;3.90;;
18196;SDS011;9224;52.422;13.024;2022-10-23T09:42:51;6.22;;;4.50;;
18196;SDS011;9224;52.422;13.024;2022-10-23T09:45:20;5.20;;;3.83;;
18196;SDS011;9224;52.422;13.024;2022-10-23T09:48:01;7.53;;;4.27;;
18196;SDS011;9224;52.422;13.024;2022-10-23T09:50:33;5.57;;;4.18;;
18196;SDS011;9224;52.422;13.024;2022-10-23T09:53:00;5.30;;;3.92;;
18196;SDS011;9224;52.422;13.024;2022-10-23T09:55:26;4.43;;;3.53;;
18196;SDS011;9224;52.422;13.024;2022-10-23T09:57:53;5.22;;;3.47;;
18196;SDS011;9224;52.422;13.024;2022-10-23T10:00:20;4.65;;;3.78;;
18196;SDS011;9224;52.422;13.024;2022-10-23T10:02:54;6.45;;;3.70;;
18196;SDS011;9224;52.422;13.024;2022-10-23T10:05:23;4.93;;;4.25;;
18196;SDS011;9224;52.422;13.024;2022-10-23T10:07:55;7.60;;;4.68;;
18196;SDS011;9224;52.422;13.024;2022-10-23T10:10:24;5.35;;;3.80;;
18196;SDS011;9224;52.422;13.024;2022-10-23T10:12:52;5.75;;;3.70;;
18196;SDS011;9224;52.422;13.024;2022-10-23T10:15:24;7.45;;;5.35;;
18196;SDS011;9224;52.422;13.024;2022-10-23T10:17:56;5.75;;;4.20;;
18196;SDS011;9224;52.422;13.024;2022-10-23T10:20:43;4.78;;;3.50;;
18196;SDS011;9224;52.422;13.024;2022-10-23T10:23:20;5.47;;;3.05;;
18196;SDS011;9224;52.422;13.024;2022-10-23T10:25:53;5.95;;;3.30;;
18196;SDS011;9224;52.422;13.024;2022-10-23T10:28:30;5.80;;;3.10;;
18196;SDS011;9224;52.422;13.024;2022-10-23T10:31:07;3.85;;;3.05;;
18196;SDS011;9224;52.422;13.024;2022-10-23T10:33:37;5.93;;;3.53;;
18196;SDS011;9224;52.422;13.024;2022-10-23T10:36:10;4.90;;;3.00;;
18196;SDS011;9224;52.422;13.024;2022-10-23T10:38:44;5.28;;;3.40;;
18196;SDS011;9224;52.422;13.024;2022-10-23T10:41:19;4.25;;;3.05;;
18196;SDS011;9224;52.422;13.024;2022-10-23T10:44:08;4.20;;;2.70;;
18196;SDS011;9224;52.422;13.024;2022-10-23T10:46:42;6.55;;;3.00;;
18196;SDS011;9224;52.422;13.024;2022-10-23T10:49:14;4.83;;;3.10;;
18196;SDS011;9224;52.422;13.024;2022-10-23T10:51:45;4.30;;;2.90;;
18196;SDS011;9224;52.422;13.024;2022-10-23T10:54:21;5.97;;;3.00;;
18196;SDS011;9224;52.422;13.024;2022-10-23T10:56:53;3.83;;;3.00;;
18196;SDS011;9224;52.422;13.024;2022-10-23T10:59:22;5.20;;;2.80;;
18196;SDS011;9224;52.422;13.024;2022-10-23T11:01:51;4.13;;;2.53;;
18196;SDS011;9224;52.422;13.024;2022-10-23T11:04:21;7.00;;;3.08;;
18196;SDS011;9224;52.422;13.024;2022-10-23T11:06:54;4.47;;;2.70;;
18196;SDS011;9224;52.422;13.024;2022-10-23T11:09:24;3.60;;;2.50;;
18196;SDS011;9224;52.422;13.024;2022-10-23T11:11:53;4.20;;;2.50;;
18196;SDS011;9224;52.422;13.024;2022-10-23T11:14:20;3.47;;;2.40;;
18196;SDS011;9224;52.422;13.024;2022-10-23T11:16:48;2.92;;;2.30;;
18196;SDS011;9224;52.422;13.024;2022-10-23T11:19:17;2.88;;;2.22;;
18196;SDS011;9224;52.422;13.024;2022-10-23T11:21:46;4.05;;;2.55;;
18196;SDS011;9224;52.422;13.024;2022-10-23T11:24:26;5.43;;;2.55;;
18196;SDS011;9224;52.422;13.024;2022-10-23T11:27:18;3.90;;;2.42;;
18196;SDS011;9224;52.422;13.024;2022-10-23T11:29:59;4.27;;;2.50;;
18196;SDS011;9224;52.422;13.024;2022-10-23T11:32:41;4.07;;;2.40;;
18196;SDS011;9224;52.422;13.024;2022-10-23T11:35:19;4.30;;;2.42;;
18196;SDS011;9224;52.422;13.024;2022-10-23T11:38:06;7.72;;;4.20;;
18196;SDS011;9224;52.422;13.024;2022-10-23T11:40:43;6.50;;;3.50;;
18196;SDS011;9224;52.422;13.024;2022-10-23T11:43:10;3.00;;;2.10;;
18196;SDS011;9224;52.422;13.024;2022-10-23T11:45:37;4.25;;;2.53;;
18196;SDS011;9224;52.422;13.024;2022-10-23T11:48:05;4.90;;;2.38;;
18196;SDS011;9224;52.422;13.024;2022-10-23T11:50:49;5.20;;;2.47;;
18196;SDS011;9224;52.422;13.024;2022-10-23T11:53:24;4.15;;;2.50;;
18196;SDS011;9224;52.422;13.024;2022-10-23T11:56:02;6.40;;;2.20;;
18196;SDS011;9224;52.422;13.024;2022-10-23T11:58:39;4.30;;;2.37;;
18196;SDS011;9224;52.422;13.024;2022-10-23T12:01:15;4.88;;;2.13;;
18196;SDS011;9224;52.422;13.024;2022-10-23T12:03:48;3.65;;;1.80;;
18196;SDS011;9224;52.422;13.024;2022-10-23T12:06:19;3.58;;;2.05;;
18196;SDS011;9224;52.422;13.024;2022-10-23T12:08:52;4.70;;;2.20;;
18196;SDS011;9224;52.422;13.024;2022-10-23T12:11:37;3.40;;;2.00;;
18196;SDS011;9224;52.422;13.024;2022-10-23T12:16:51;4.13;;;2.25;;
18196;SDS011;9224;52.422;13.024;2022-10-23T12:19:18;4.35;;;2.05;;
18196;SDS011;9224;52.422;13.024;2022-10-23T12:21:49;2.97;;;1.70;;
18196;SDS011;9224;52.422;13.024;2022-10-23T12:24:21;5.38;;;2.03;;
18196;SDS011;9224;52.422;13.024;2022-10-23T12:29:55;3.92;;;2.30;;
18196;SDS011;9224;52.422;13.024;2022-10-23T12:32:29;3.28;;;1.73;;
18196;SDS011;9224;52.422;13.024;2022-10-23T12:35:07;3.97;;;2.00;;
18196;SDS011;9224;52.422;13.024;2022-10-23T12:37:43;3.13;;;2.25;;
18196;SDS011;9224;52.422;13.024;2022-10-23T12:40:16;5.28;;;2.08;;
18196;SDS011;9224;52.422;13.024;2022-10-23T12:42:50;2.60;;;1.73;;
18196;SDS011;9224;52.422;13.024;2022-10-23T12:45:19;3.92;;;2.30;;
18196;SDS011;9224;52.422;13.024;2022-10-23T12:47:48;3.30;;;2.10;;
18196;SDS011;9224;52.422;13.024;2022-10-23T12:50:16;4.80;;;2.30;;
18196;SDS011;9224;52.422;13.024;2022-10-23T12:52:49;3.17;;;2.15;;
18196;SDS011;9224;52.422;13.024;2022-10-23T12:55:16;3.88;;;2.00;;
18196;SDS011;9224;52.422;13.024;2022-10-23T12:57:50;4.47;;;2.17;;
18196;SDS011;9224;52.422;13.024;2022-10-23T13:00:18;3.80;;;2.20;;
18196;SDS011;9224;52.422;13.024;2022-10-23T13:02:55;2.88;;;2.20;;
18196;SDS011;9224;52.422;13.024;2022-10-23T13:05:22;2.93;;;2.10;;
18196;SDS011;9224;52.422;13.024;2022-10-23T13:07:49;3.88;;;2.47;;
18196;SDS011;9224;52.422;13.024;2022-10-23T13:10:17;4.78;;;2.63;;
18196;SDS011;9224;52.422;13.024;2022-10-23T13:12:46;4.47;;;2.30;;
18196;SDS011;9224;52.422;13.024;2022-10-23T13:15:19;3.80;;;2.20;;
18196;SDS011;9224;52.422;13.024;2022-10-23T13:17:46;5.07;;;2.50;;
18196;SDS011;9224;52.422;13.024;2022-10-23T13:20:27;3.67;;;2.33;;
18196;SDS011;9224;52.422;13.024;2022-10-23T13:22:59;3.15;;;2.33;;
18196;SDS011;9224;52.422;13.024;2022-10-23T13:25:27;3.22;;;2.50;;
18196;SDS011;9224;52.422;13.024;2022-10-23T13:28:04;4.50;;;2.58;;
18196;SDS011;9224;52.422;13.024;2022-10-23T13:30:38;5.45;;;2.42;;
18196;SDS011;9224;52.422;13.024;2022-10-23T13:33:12;3.72;;;2.30;;
18196;SDS011;9224;52.422;13.024;2022-10-23T13:35:39;5.07;;;2.53;;
18196;SDS011;9224;52.422;13.024;2022-10-23T13:38:06;3.42;;;2.33;;
18196;SDS011;9224;52.422;13.024;2022-10-23T13:40:33;5.40;;;2.80;;
18196;SDS011;9224;52.422;13.024;2022-10-23T13:42:59;3.83;;;2.40;;
18196;SDS011;9224;52.422;13.024;2022-10-23T13:45:28;5.07;;;3.30;;
18196;SDS011;9224;52.422;13.024;2022-10-23T13:47:54;2.70;;;2.50;;
18196;SDS011;9224;52.422;13.024;2022-10-23T13:50:20;3.85;;;2.50;;
18196;SDS011;9224;52.422;13.024;2022-10-23T13:52:47;3.67;;;2.22;;
18196;SDS011;9224;52.422;13.024;2022-10-23T13:55:18;3.67;;;2.22;;
18196;SDS011;9224;52.422;13.024;2022-10-23T13:57:50;3.33;;;2.40;;
18196;SDS011;9224;52.422;13.024;2022-10-23T14:00:17;4.30;;;2.33;;
18196;SDS011;9224;52.422;13.024;2022-10-23T14:02:45;3.23;;;2.70;;
18196;SDS011;9224;52.422;13.024;2022-10-23T14:05:11;4.82;;;2.55;;
18196;SDS011;9224;52.422;13.024;2022-10-23T14:07:38;2.97;;;2.53;;
18196;SDS011;9224;52.422;13.024;2022-10-23T14:10:05;3.95;;;2.20;;
18196;SDS011;9224;52.422;13.024;2022-10-23T14:12:37;5.63;;;2.47;;
18196;SDS011;9224;52.422;13.024;2022-10-23T14:15:04;2.88;;;2.35;;
18196;SDS011;9224;52.422;13.024;2022-10-23T14:17:32;2.65;;;2.30;;
18196;SDS011;9224;52.422;13.024;2022-10-23T14:20:00;3.50;;;2.20;;
18196;SDS011;9224;52.422;13.024;2022-10-23T14:22:27;3.42;;;2.47;;
18196;SDS011;9224;52.422;13.024;2022-10-23T14:24:53;2.90;;;2.50;;
18196;SDS011;9224;52.422;13.024;2022-10-23T14:27:20;4.00;;;2.53;;
18196;SDS011;9224;52.422;13.024;2022-10-23T14:29:46;4.15;;;2.53;;
18196;SDS011;9224;52.422;13.024;2022-10-23T14:32:13;6.32;;;2.78;;
18196;SDS011;9224;52.422;13.024;2022-10-23T14:34:40;4.95;;;2.65;;
18196;SDS011;9224;52.422;13.024;2022-10-23T14:37:09;4.20;;;2.30;;
18196;SDS011;9224;52.422;13.024;2022-10-23T14:39:35;5.15;;;2.40;;
18196;SDS011;9224;52.422;13.024;2022-10-23T14:42:02;4.28;;;2.60;;
18196;SDS011;9224;52.422;13.024;2022-10-23T14:44:28;3.10;;;2.58;;
18196;SDS011;9224;52.422;13.024;2022-10-23T14:46:55;3.72;;;2.30;;
18196;SDS011;9224;52.422;13.024;2022-10-23T14:49:22;4.63;;;2.60;;
18196;SDS011;9224;52.422;13.024;2022-10-23T14:51:48;4.90;;;2.60;;
18196;SDS011;9224;52.422;13.024;2022-10-23T14:54:16;3.72;;;2.42;;
18196;SDS011;9224;52.422;13.024;2022-10-23T14:56:43;4.53;;;2.75;;
18196;SDS011;9224;52.422;13.024;2022-10-23T14:59:09;4.68;;;3.00;;
18196;SDS011;9224;52.422;13.024;2022-10-23T15:01:37;4.90;;;2.72;;
18196;SDS011;9224;52.422;13.024;2022-10-23T15:04:05;3.40;;;2.75;;
18196;SDS011;9224;52.422;13.024;2022-10-23T15:06:31;5.07;;;2.90;;
18196;SDS011;9224;52.422;13.024;2022-10-23T15:08:58;4.45;;;2.88;;
18196;SDS011;9224;52.422;13.024;2022-10-23T15:11:26;6.18;;;2.80;;
18196;SDS011;9224;52.422;13.024;2022-10-23T15:13:53;3.63;;;2.90;;